South Royalton, Vermont
Current Conditions -  °F | °C
As of 9:41 PM on Saturday 20 Dec 2014 (Local Time) from KLEB Reporting Station
Overcast Overcast  
Wind Chill: 23°   Ceiling: 2900
Heat Index: 23°   Visibility: 10mi
Dew Point: 19°   Wind: 3mph
Humidity: 85%   Direction: 350°N
Pressure: 30.3"   Gusts: NA
Location:  43.82°N, 72.52°W
Report Text: KLEB 210241Z 35003KT 10SM OVC029 M05/M07 A3030 RMK AO2 T10501072
Loading
Personal Weather Stations






























Interactive Weather Map New forecast layout! Learn more

10-Day Weather Forecast

Advertisements
Track Severe Weather on mobile